Hlavní strana
METAR-TAF:

METAR-TAF

Letiště :

Irkutsk, Rusko

zeměpisná šířka: 52-16N, zeměpisná délka: 104-19E, výška: 513 m

Aktuální stav počasí

Zpráva byla vytvořena před 39 minutami, v 18:30 UTC
vítr z různých směrů 2 kt
Teplota 13°C
Vlhkost vzduchu 94%
Tlak 1019 hPa
Viditelnost 10 km a více
Polojasno ve výšce 5000 ft, Cumulonimbus.

METAR: UIII 151830Z VRB01MPS 9999 SCT050CB 13/12 Q1019 R30/60D NOSIG RMK QFE719/0959

Čas: 03:09 (19:09 UTC)

Předpověď počasí

Zpráva byla vytvořena před 2 hodinami a 9 minutami, v 17:00 UTC
Předpověď platná od 15 v 18 UTC do 16 v 18 UTC
Západoseverozápadní vítr 6 kt
Viditelnost 10 km a více
Oblačno až skoro zataženo ve výšce 1100 ft, Cumulonimbus.
Dočasný
od 15 v 18 UTC do 16 v 03 UTC
Viditelnost: 0300 m
ve výšce 100 ft
mlha

TAF: UIII 151700Z 1518/1618 30003MPS 9999 BKN011CB TEMPO 1518/1603 0300 FG VV001

Stav a předpovědi počasí z více než 4 000 letišť (zprávy METAR a TAF).

Červené a žluté tečky na mapě představují dostupné meteorologické stanice.

Když kurzor umístíte na tečku, zobrazí se název stanice.

Pak kliknutím zobrazíte stav a předpověď počasí.

Chcete-li změnit mapu, kliknutím na zelené tlačítko se znaménkem +mapu přiblížíte, kliknutím na zelené tlačítko se znaménkem – mapu oddálíte a kliknutím na zelené šipky přejdete na sousední mapy.


METAR-TAF: